createdAt,value
2023-03-20T00:04:03.255Z,6.3
2023-03-20T00:09:47.120Z,7.1
2023-03-20T00:15:32.704Z,7.8
2023-03-20T00:21:18.295Z,6.1
2023-03-20T00:27:02.074Z,7.7
2023-03-20T00:32:46.182Z,8.2
2023-03-20T00:38:29.806Z,7.3
2023-03-20T00:44:18.584Z,6.8
2023-03-20T00:50:02.424Z,7.9
2023-03-20T00:55:46.143Z,7.5
2023-03-20T01:01:30.495Z,7.3
2023-03-20T01:07:16.079Z,7.7
2023-03-20T01:13:00.562Z,7.3
2023-03-20T01:18:44.516Z,8.1
2023-03-20T01:24:29.465Z,6.8
2023-03-20T01:30:24.020Z,7.9
2023-03-20T01:36:08.202Z,8.2
2023-03-20T01:41:53.256Z,8.8
2023-03-20T01:47:37.119Z,9.4
2023-03-20T01:53:23.710Z,10.2
2023-03-20T01:59:11.598Z,9.4
2023-03-20T02:04:58.947Z,9.7
2023-03-20T02:10:43.074Z,9.1
2023-03-20T02:16:26.801Z,9.6
2023-03-20T02:22:24.317Z,11.1
2023-03-20T02:28:20.886Z,12.6
2023-03-20T02:34:16.135Z,9.9
2023-03-20T02:40:08.059Z,11.4
2023-03-20T02:45:57.964Z,11.6
2023-03-20T02:51:44.244Z,11.5
2023-03-20T02:57:32.876Z,11.3
2023-03-20T03:03:19.525Z,10.5
2023-03-20T03:09:04.802Z,12.4
2023-03-20T03:14:50.137Z,11.2
2023-03-20T03:20:35.663Z,10.8
2023-03-20T03:26:22.184Z,9.4
2023-03-20T03:32:08.080Z,12.9
2023-03-20T03:37:57.941Z,9.6
2023-03-20T03:43:43.887Z,11.1
2023-03-20T03:49:33.459Z,9.9
2023-03-20T03:55:19.031Z,10.7
2023-03-20T04:01:05.480Z,10.1
2023-03-20T04:06:49.287Z,10.8
2023-03-20T04:12:40.595Z,10.6
2023-03-20T04:18:24.361Z,10.1
2023-03-20T04:24:08.254Z,10
2023-03-20T04:29:52.041Z,10.1
2023-03-20T04:35:36.534Z,8.6
2023-03-20T04:41:20.828Z,9.1
2023-03-20T04:47:04.714Z,11.1
2023-03-20T04:52:48.345Z,9.2
2023-03-20T04:58:32.112Z,9.4
2023-03-20T05:04:15.901Z,9.9
2023-03-20T05:09:59.715Z,9.6
2023-03-20T05:15:43.509Z,9.1
2023-03-20T05:21:27.163Z,8.1
2023-03-20T05:27:10.998Z,8.8
2023-03-20T05:32:56.105Z,7.7
2023-03-20T05:38:39.721Z,7.6
2023-03-20T05:44:23.445Z,9.6
2023-03-20T05:50:11.724Z,9
2023-03-20T05:55:56.400Z,9.9
2023-03-20T06:01:40.893Z,8.4
2023-03-20T06:07:24.658Z,9.1
2023-03-20T06:13:08.388Z,9.2
2023-03-20T06:18:53.087Z,7.5
2023-03-20T06:24:36.775Z,11.2
2023-03-20T06:30:21.844Z,10.5
2023-03-20T06:36:05.970Z,6.8
2023-03-20T06:41:49.924Z,7.8
2023-03-20T06:47:33.687Z,7.8
2023-03-20T06:53:18.557Z,6.8
2023-03-20T06:59:02.305Z,6.3
2023-03-20T07:04:46.000Z,7.4
2023-03-20T07:10:29.920Z,8.6
2023-03-20T07:16:14.632Z,5.8
2023-03-20T07:22:01.475Z,9.2
2023-03-20T07:27:45.155Z,8.1
2023-03-20T07:33:28.955Z,7.3
2023-03-20T07:39:13.268Z,6.9
2023-03-20T07:44:57.121Z,7.9
2023-03-20T07:50:45.257Z,6.9
2023-03-20T07:56:28.859Z,5.7
2023-03-20T08:02:13.876Z,6.9
2023-03-20T08:07:58.188Z,6.1
2023-03-20T08:13:42.047Z,5.3
2023-03-20T08:19:26.700Z,8
2023-03-20T08:25:11.359Z,7
2023-03-20T08:30:55.364Z,5.4
2023-03-20T08:36:39.058Z,6.2
2023-03-20T08:42:22.825Z,6.1
2023-03-20T08:48:06.715Z,7
2023-03-20T08:53:50.552Z,5
2023-03-20T08:59:34.415Z,6
2023-03-20T09:05:18.154Z,6.8
2023-03-20T09:11:02.000Z,6.1
2023-03-20T09:16:47.748Z,5.1
2023-03-20T09:22:31.442Z,6.1
2023-03-20T09:28:15.421Z,6.5
2023-03-20T09:33:59.292Z,8.4
2023-03-20T09:39:43.192Z,5.7
2023-03-20T09:45:30.011Z,5.3
2023-03-20T09:51:17.659Z,3.9
2023-03-20T09:57:02.567Z,5
2023-03-20T10:02:49.003Z,5.4
2023-03-20T10:08:36.004Z,4.2
2023-03-20T10:14:25.872Z,6.6
2023-03-20T10:20:13.323Z,4.2
2023-03-20T10:25:59.264Z,5.7
2023-03-20T10:31:46.702Z,6.6
2023-03-20T10:37:41.518Z,6.1
2023-03-20T10:43:27.249Z,5.9
2023-03-20T10:49:15.845Z,5.4
2023-03-20T10:55:02.765Z,3.2
2023-03-20T11:00:46.830Z,4.6
2023-03-20T11:06:33.652Z,3.9
2023-03-20T11:12:22.887Z,4.5
2023-03-20T11:18:08.117Z,6.9
2023-03-20T11:23:52.462Z,6
2023-03-20T11:29:36.429Z,6.5
2023-03-20T11:35:29.831Z,5.3
2023-03-20T11:41:19.506Z,6.5
2023-03-20T11:47:04.766Z,6.9
2023-03-20T11:52:48.605Z,7.6
2023-03-20T11:58:32.674Z,6.8
2023-03-20T12:04:18.072Z,7.1
2023-03-20T12:10:05.458Z,4.3
2023-03-20T12:15:52.576Z,6.5
2023-03-20T12:21:41.845Z,6.9
2023-03-20T12:27:28.433Z,5.6
2023-03-20T12:33:15.221Z,6
2023-03-20T12:38:59.670Z,6.8
2023-03-20T12:44:46.852Z,5.6
2023-03-20T12:50:34.929Z,7.7
2023-03-20T12:56:26.092Z,5.9
2023-03-20T13:02:15.165Z,7.1
2023-03-20T13:08:04.925Z,8.4
2023-03-20T13:13:52.854Z,5.7
2023-03-20T13:19:40.241Z,6.6
2023-03-20T13:25:30.611Z,4.8
2023-03-20T13:31:22.220Z,5.5
2023-03-20T13:37:25.890Z,5.1
2023-03-20T13:43:15.783Z,11
2023-03-20T13:49:02.969Z,4.9
2023-03-20T13:54:52.996Z,5.2
2023-03-20T14:00:41.795Z,5.5
2023-03-20T14:06:30.858Z,6.8
2023-03-20T14:12:15.639Z,5.3
2023-03-20T14:18:00.122Z,6.7
2023-03-20T14:23:46.054Z,7.9
2023-03-20T14:29:43.789Z,6.9
2023-03-20T14:35:32.148Z,5.6
2023-03-20T14:41:19.501Z,7.7
2023-03-20T14:47:06.115Z,6.8
2023-03-20T14:52:55.844Z,6.8
2023-03-20T14:58:51.148Z,6
2023-03-20T15:04:37.202Z,5.7
2023-03-20T15:10:22.770Z,5
2023-03-20T15:16:08.240Z,8.1
2023-03-20T15:21:52.258Z,6.8
2023-03-20T15:27:36.499Z,7
2023-03-20T15:33:25.297Z,6.3
2023-03-20T15:39:15.988Z,6
2023-03-20T15:45:00.382Z,9.3
2023-03-20T15:50:46.478Z,7.1
2023-03-20T15:56:30.820Z,6.7
2023-03-20T16:02:16.547Z,7
2023-03-20T16:08:05.520Z,7.2
2023-03-20T16:13:50.414Z,7.5
2023-03-20T16:19:34.471Z,6.4
2023-03-20T16:25:19.998Z,8.3
2023-03-20T16:31:12.070Z,7.6
2023-03-20T16:36:58.409Z,9.5
2023-03-20T16:42:42.405Z,5.9
2023-03-20T16:48:34.376Z,7.6
2023-03-20T16:54:22.376Z,7.2
2023-03-20T17:00:09.444Z,5.9
2023-03-20T17:05:57.917Z,7.9
2023-03-20T17:11:51.898Z,8.4
2023-03-20T17:17:36.435Z,8.7
2023-03-20T17:23:23.018Z,6.9
2023-03-20T17:29:07.663Z,8.7
2023-03-20T17:34:51.819Z,10.8
2023-03-20T17:40:36.538Z,8.4
2023-03-20T17:46:25.038Z,9.2
2023-03-20T17:52:12.261Z,8.9
2023-03-20T17:57:56.270Z,8
2023-03-20T18:03:40.448Z,10
2023-03-20T18:09:24.548Z,9.8
2023-03-20T18:15:10.212Z,10
2023-03-20T18:20:54.418Z,8.8
2023-03-20T18:26:39.436Z,9.5
2023-03-20T18:32:23.496Z,9.1
2023-03-20T18:38:08.055Z,10.6
2023-03-20T18:43:52.757Z,8.6
2023-03-20T18:49:37.036Z,9.6
2023-03-20T18:55:21.136Z,10.9
2023-03-20T19:01:05.334Z,9.1
2023-03-20T19:06:50.323Z,10.9
2023-03-20T19:12:34.531Z,12.5
2023-03-20T19:18:19.860Z,11.3
2023-03-20T19:24:05.073Z,12.5
2023-03-20T19:29:49.705Z,11.5
2023-03-20T19:36:05.539Z,10.4
2023-03-20T19:41:39.504Z,11.5
2023-03-20T19:47:23.852Z,11
2023-03-20T19:53:09.345Z,10.2
2023-03-20T19:58:53.968Z,8.8
2023-03-20T20:04:38.801Z,10.2
2023-03-20T20:10:23.024Z,11.7
2023-03-20T20:16:07.468Z,10
2023-03-20T20:22:24.684Z,9.9
2023-03-20T20:27:55.823Z,8.8
2023-03-20T20:33:43.006Z,10.5
2023-03-20T20:39:27.761Z,10.1
2023-03-20T20:45:13.615Z,10.7
2023-03-20T20:51:01.609Z,8.3
2023-03-20T20:56:46.291Z,10
2023-03-20T21:02:30.746Z,9.5
2023-03-20T21:08:14.858Z,8.8
2023-03-20T21:13:58.819Z,11.1
2023-03-20T21:19:43.542Z,9.3
2023-03-20T21:25:43.703Z,8.3
2023-03-20T21:31:33.818Z,8.6
2023-03-20T21:43:22.428Z,7.3
2023-03-20T22:01:58.525Z,8
2023-03-20T22:08:00.935Z,7.7
2023-03-20T22:20:23.124Z,8
2023-03-20T22:32:40.550Z,7.9
2023-03-20T22:44:41.527Z,6.8
2023-03-20T22:49:45.470Z,7.4
2023-03-20T22:55:31.892Z,10
2023-03-20T23:01:15.782Z,6.8
2023-03-20T23:06:59.444Z,7.3
2023-03-20T23:12:46.210Z,8.7
2023-03-20T23:18:29.978Z,8.4
2023-03-20T23:24:14.027Z,8.5
2023-03-20T23:29:58.167Z,7
2023-03-20T23:35:42.013Z,7.5
2023-03-20T23:42:04.941Z,6.2
2023-03-20T23:47:45.194Z,8.7
2023-03-20T23:53:29.105Z,6
2023-03-20T23:59:23.577Z,6.8
